Kirkwood, New Jersey
Current Conditions -  °F | °C
As of 10:54 AM on Saturday 22 Nov 2014 (Local Time) from KVAY Reporting Station
Clear Clear  
Wind Chill: 30°   Ceiling: Unl
Heat Index: 37°   Visibility: 10mi
Dew Point: 13°   Wind: 10mph
Humidity: 37%   Direction: 230°SW
Pressure: 30.47"   Gusts: NA
Location:  39.8445°N, 74.9532°W
Report Text: KVAY 221554Z AUTO 23009KT 10SM CLR 03/M11 A3047 RMK AO2 SLP320 T00281106
Loading
Personal Weather Stations






























Interactive Weather Map New forecast layout! Learn more

10-Day Weather Forecast

Advertisements
Track Severe Weather on mobile